Asukamaru — JG5536 — position and weather

sailwx.info

Track history (hours):
 
Tides and Currents Weather Stations Pressure Air Temp Water Temp Dewpoint Dewpoint Depression Visibility Wind Speed Wind Dir Waves Ship Positions

Asukamaru

Last reported at 2018-Apr-24 18:30 UTC. Time now 2018-Apr-24 18:36 UTC.
Position N 35°38' E 139°45'.

Length 31 m; draft 3 m.

Type: Tug. MMSI: 431001145.

Date/timePositionNaut miles runAvg speedWind from/ knotsBaromVisibWave heightAir tempDewpointWater temp
2018-Apr-24 18:30N 35°38' E 139°45'0 0.0
2018-Apr-24 17:58N 35°38' E 139°45'0 0.0
2018-Apr-24 17:27N 35°38' E 139°45'0 0.0
2018-Apr-24 16:59N 35°38' E 139°45'0 0.0
2018-Apr-24 16:30N 35°38' E 139°45'0 0.0
2018-Apr-24 15:59N 35°38' E 139°45'0 0.0
2018-Apr-24 15:27N 35°38' E 139°45'0 0.0
2018-Apr-24 14:59N 35°38' E 139°45'0 0.0
2018-Apr-24 14:27N 35°38' E 139°45'0 0.0
2018-Apr-24 13:53N 35°38' E 139°45'0 0.0
2018-Apr-24 13:30N 35°38' E 139°45'0 0.0
2018-Apr-24 07:10N 35°38' E 139°45'0 0.0
2018-Apr-24 06:58N 35°38' E 139°45'1 1.5
2018-Apr-24 06:30N 35°38' E 139°46'1 2.9
2018-Apr-24 06:00N 35°36' E 139°46'1 2.1
2018-Apr-24 05:30N 35°37' E 139°46'1 1.3
2018-Apr-24 04:39N 35°38' E 139°45'0 0.0
2018-Apr-24 03:52N 35°38' E 139°45'0 0.0
2018-Apr-24 03:29N 35°38' E 139°45'3 4.6
2018-Apr-24 02:53N 35°36' E 139°47'3 6.9
2018-Apr-24 02:30N 35°38' E 139°46'0 0.4
2018-Apr-24 01:57N 35°38' E 139°46'0 0.0
2018-Apr-24 01:24N 35°38' E 139°46'0 0.0
2018-Apr-24 00:53N 35°38' E 139°46'0 0.0
2018-Apr-24 00:21N 35°38' E 139°46'0 0.1
2018-Apr-23 23:58N 35°38' E 139°45'0 0.0
2018-Apr-23 23:23N 35°38' E 139°45'1 2.1
2018-Apr-23 23:00N 35°37' E 139°46'1 1.7
2018-Apr-23 22:30N 35°37' E 139°46'3 5.3
2018-Apr-23 21:58N 35°34' E 139°48'3 6.7
2018-Apr-23 21:30N 35°37' E 139°46'1 2.4
2018-Apr-23 20:57N 35°38' E 139°45'0 0.0
2018-Apr-23 20:25N 35°38' E 139°45'0 0.0
2018-Apr-23 19:55N 35°38' E 139°45'0 0.0
2018-Apr-23 19:29N 35°38' E 139°45'0 0.0
2018-Apr-23 19:00N 35°38' E 139°45'0 0.0
2018-Apr-23 18:20N 35°38' E 139°45'0 0.0
2018-Apr-23 18:00N 35°38' E 139°45'0 0.0
2018-Apr-23 17:30N 35°38' E 139°45'0 0.0
2018-Apr-23 17:00N 35°38' E 139°45'0 0.0
2018-Apr-23 16:30N 35°38' E 139°45'0 0.0
2018-Apr-23 16:00N 35°38' E 139°45'0 0.0
2018-Apr-23 15:30N 35°38' E 139°45'0 0.0
2018-Apr-23 15:00N 35°38' E 139°45'0 0.0
2018-Apr-23 14:30N 35°38' E 139°45'0 0.1
2018-Apr-23 14:00N 35°38' E 139°46'0 0.1
2018-Apr-23 13:30N 35°38' E 139°45'0 0.0
2018-Apr-23 12:58N 35°38' E 139°45'0 0.0
2018-Apr-23 12:29N 35°38' E 139°45'0 0.0
2018-Apr-23 11:58N 35°38' E 139°45'0 0.0
2018-Apr-23 11:27N 35°38' E 139°45'0 0.0
2018-Apr-23 11:00N 35°38' E 139°45'0 0.0
2018-Apr-23 04:00N 35°38' E 139°45'0 0.0
2018-Apr-23 02:45N 35°38' E 139°45'0 0.0
2018-Apr-23 02:24N 35°38' E 139°45'0 0.0
2018-Apr-23 01:59N 35°38' E 139°45'0 0.0
2018-Apr-23 01:27N 35°38' E 139°45'0 0.0
2018-Apr-23 00:53N 35°38' E 139°45'0 0.1
2018-Apr-23 00:27N 35°38' E 139°46'0 0.1
2018-Apr-22 23:57N 35°38' E 139°45'0 0.0
2018-Apr-22 23:26N 35°38' E 139°45'0 0.0
2018-Apr-22 23:00N 35°38' E 139°45'0 0.0
2018-Apr-22 22:30N 35°38' E 139°45'0 0.0
2018-Apr-22 22:00N 35°38' E 139°45'0 0.0
2018-Apr-22 21:29N 35°38' E 139°45'0 0.0
2018-Apr-22 20:55N 35°38' E 139°45'0 0.0
2018-Apr-22 20:14N 35°38' E 139°45'0 0.0
2018-Apr-22 20:00N 35°38' E 139°45'0 0.0
2018-Apr-22 17:15N 35°38' E 139°45'0 0.0
2018-Apr-22 16:46N 35°38' E 139°45'0 0.0
2018-Apr-22 16:29N 35°38' E 139°45'0 0.0
2018-Apr-22 13:03N 35°38' E 139°45'0 0.0
2018-Apr-22 12:32N 35°38' E 139°45'0 0.0
2018-Apr-22 11:33N 35°38' E 139°45'0 0.1
2018-Apr-22 11:29N 35°38' E 139°45'0 0.0
2018-Apr-22 10:24N 35°38' E 139°45'0 0.0
2018-Apr-22 01:31N 35°38' E 139°45'0 1.2
2018-Apr-22 01:30N 35°38' E 139°45'0 0.0
2018-Apr-22 01:00N 35°38' E 139°45'0 0.0
2018-Apr-22 00:25N 35°38' E 139°45'0 0.0
2018-Apr-21 22:27N 35°38' E 139°45'0 0.0
2018-Apr-21 20:49N 35°38' E 139°45'3 8.0
2018-Apr-21 20:30N 35°36' E 139°47'1 1.6
2018-Apr-21 20:00N 35°36' E 139°46'2 1.1
2018-Apr-21 18:26N 35°38' E 139°45'0 0.0
2018-Apr-21 17:55N 35°38' E 139°45'0 1.0
2018-Apr-21 17:30N 35°38' E 139°46'2 3.4
2018-Apr-21 16:59N 35°36' E 139°46'2 4.4
2018-Apr-21 16:30N 35°38' E 139°45'0 0.0
2018-Apr-21 13:37N 35°38' E 139°45'0 0.0
2018-Apr-21 13:30N 35°38' E 139°45'2 4.1
2018-Apr-21 13:00N 35°37' E 139°47'0 0.3
2018-Apr-21 12:30N 35°36' E 139°47'2 4.5
2018-Apr-21 12:00N 35°35' E 139°48'0 0.6
2018-Apr-21 11:30N 35°34' E 139°48'2 4.6
2018-Apr-21 11:01N 35°36' E 139°47'1 2.1
2018-Apr-21 10:30N 35°35' E 139°47'2 3.6
2018-Apr-21 09:59N 35°34' E 139°49'1 1.6
2018-Apr-21 09:30N 35°35' E 139°48'1 2.7
2018-Apr-21 08:59N 35°36' E 139°48'1 1.2
2018-Apr-21 08:30N 35°36' E 139°47'1 2.9
2018-Apr-21 08:01N 35°34' E 139°48'2 4.4
2018-Apr-21 07:30N 35°36' E 139°46'2 0.6
2018-Apr-21 03:26N 35°38' E 139°45'3 7.8
2018-Apr-21 03:00N 35°35' E 139°48'3 6.5
2018-Apr-21 02:30N 35°38' E 139°45'0 0.1
2018-Apr-21 01:34N 35°38' E 139°45'0 0.0
2018-Apr-21 01:24N 35°38' E 139°45'0 0.0
2018-Apr-21 00:55N 35°38' E 139°45'0 0.0
2018-Apr-21 00:28N 35°38' E 139°45'0 0.0
2018-Apr-21 00:00N 35°38' E 139°45'0 0.0
2018-Apr-20 23:30N 35°38' E 139°45'0 0.0
2018-Apr-20 22:58N 35°38' E 139°45'0 0.0
2018-Apr-20 22:29N 35°38' E 139°45'0 0.0
2018-Apr-20 21:58N 35°38' E 139°45'0 0.0
2018-Apr-20 21:29N 35°38' E 139°45'0 0.0
2018-Apr-20 21:00N 35°38' E 139°45'0 0.0
2018-Apr-20 20:30N 35°38' E 139°45'0 0.0
2018-Apr-20 20:00N 35°38' E 139°45'0 0.0
2018-Apr-20 19:18N 35°38' E 139°45'0 0.0
2018-Apr-20 18:59N 35°38' E 139°45'0 0.0
2018-Apr-20 17:57N 35°38' E 139°45'0 0.0
2018-Apr-20 14:02N 35°38' E 139°45'0 6.4
2018-Apr-20 14:00N 35°38' E 139°46'2 3.7
2018-Apr-20 13:30N 35°36' E 139°47'1 2.0
2018-Apr-20 12:59N 35°37' E 139°46'1 1.2
2018-Apr-20 12:07N 35°38' E 139°45'0 0.6
2018-Apr-20 11:56N 35°38' E 139°46'2 4.4
2018-Apr-20 11:30N 35°36' E 139°47'1 1.3
2018-Apr-20 11:00N 35°37' E 139°46'1 1.1
2018-Apr-20 09:41N 35°38' E 139°45'0 0.0
2018-Apr-20 09:12N 35°38' E 139°45'0 0.0
2018-Apr-20 08:51N 35°38' E 139°45'1 3.0
2018-Apr-20 08:31N 35°37' E 139°46'2 4.8
2018-Apr-20 08:00N 35°35' E 139°48'1 0.5
2018-Apr-20 06:11N 35°36' E 139°46'1 3.7
2018-Apr-20 06:00N 35°36' E 139°47'2 3.0
2018-Apr-20 05:30N 35°37' E 139°46'1 0.4
2018-Apr-20 03:00N 35°38' E 139°45'0 0.0
2018-Apr-20 02:27N 35°38' E 139°45'0 0.0
2018-Apr-20 01:58N 35°38' E 139°45'0 0.0
2018-Apr-20 01:30N 35°38' E 139°45'0 0.0
2018-Apr-20 01:00N 35°38' E 139°45'0 0.0
2018-Apr-20 00:30N 35°38' E 139°45'0 0.0
2018-Apr-19 23:57N 35°38' E 139°45'0 0.0
2018-Apr-19 23:04N 35°38' E 139°45'0 0.1
2018-Apr-19 23:00N 35°38' E 139°45'0 0.0
2018-Apr-19 22:25N 35°38' E 139°45'0 0.0
2018-Apr-19 21:59N 35°38' E 139°45'0 0.0
2018-Apr-19 21:26N 35°38' E 139°45'0 0.0
2018-Apr-19 20:56N 35°38' E 139°45'0 0.0
2018-Apr-19 20:09N 35°38' E 139°45'0 0.0
2018-Apr-19 19:56N 35°38' E 139°45'0 0.0
2018-Apr-19 19:28N 35°38' E 139°45'0 0.0
2018-Apr-19 18:57N 35°38' E 139°45'0 0.0
2018-Apr-19 18:30N 35°38' E 139°45'0 0.0
2018-Apr-19 17:58N 35°38' E 139°45'0 0.0
2018-Apr-19 17:29N 35°38' E 139°45'0 0.0
2018-Apr-19 16:18N 35°38' E 139°45'0 0.0
2018-Apr-19 15:57N 35°38' E 139°45'0 0.0
2018-Apr-19 13:49N 35°38' E 139°45'0 0.0
2018-Apr-19 13:19N 35°38' E 139°45'0 0.0
2018-Apr-19 12:38N 35°38' E 139°45'0 0.0
2018-Apr-19 12:22N 35°38' E 139°45'0 0.0
2018-Apr-19 11:57N 35°38' E 139°45'0 0.0
2018-Apr-19 11:29N 35°38' E 139°45'0 0.0
2018-Apr-19 10:58N 35°38' E 139°45'0 0.0
2018-Apr-19 10:28N 35°38' E 139°45'0 0.0
2018-Apr-19 09:56N 35°38' E 139°45'0 0.0
2018-Apr-19 09:19N 35°38' E 139°45'0 0.0
2018-Apr-19 08:59N 35°38' E 139°45'0 0.0
2018-Apr-19 08:30N 35°38' E 139°45'0 0.0
2018-Apr-19 07:24N 35°38' E 139°45'0 0.0
2018-Apr-19 06:55N 35°38' E 139°45'0 0.0
2018-Apr-19 01:16N 35°38' E 139°45'0 0.0
2018-Apr-19 01:00N 35°38' E 139°45'0 0.0
2018-Apr-19 00:24N 35°38' E 139°45'0 0.0
2018-Apr-18 23:52N 35°38' E 139°45'0 0.0
2018-Apr-18 23:30N 35°38' E 139°45'0 0.0
2018-Apr-18 22:56N 35°38' E 139°45'0 0.0
2018-Apr-18 22:27N 35°38' E 139°45'0 0.0
2018-Apr-18 21:57N 35°38' E 139°45'0 0.0
2018-Apr-18 21:30N 35°38' E 139°45'0 0.0
2018-Apr-18 21:00N 35°38' E 139°45'0 0.0
2018-Apr-18 19:44N 35°38' E 139°45'0 0.0
2018-Apr-18 19:29N 35°38' E 139°45'0 0.0
2018-Apr-18 15:56N 35°38' E 139°45'0 0.0
2018-Apr-18 15:28N 35°38' E 139°45'0 0.0
2018-Apr-18 14:53N 35°38' E 139°45'0 0.0
2018-Apr-18 14:13N 35°38' E 139°45'0 0.0
2018-Apr-18 14:00N 35°38' E 139°45'0 0.0
2018-Apr-18 12:38N 35°38' E 139°45'0 0.0
2018-Apr-18 11:37N 35°38' E 139°45'0 0.0
2018-Apr-18 11:13N 35°38' E 139°45'0 0.1
2018-Apr-18 10:51N 35°38' E 139°46'0 0.1
2018-Apr-18 10:30N 35°38' E 139°45'0 0.0
2018-Apr-18 09:58N 35°38' E 139°45'0 0.0
2018-Apr-18 09:27N 35°38' E 139°45'0 0.0
2018-Apr-18 09:00N 35°38' E 139°45'0 0.0
2018-Apr-18 08:30N 35°38' E 139°45'0 0.0
2018-Apr-18 07:52N 35°38' E 139°45'0 0.0
2018-Apr-18 07:30N 35°38' E 139°45'0 0.0
2018-Apr-18 07:00N 35°38' E 139°45'0 0.0
2018-Apr-18 06:24N 35°38' E 139°45'0 0.1
2018-Apr-18 04:32N 35°38' E 139°46'0 9.7
2018-Apr-18 04:30N 35°38' E 139°46'0 0.8
2018-Apr-18 04:00N 35°37' E 139°46'0 0.2
2018-Apr-18 03:29N 35°37' E 139°46'1 1.4
2018-Apr-18 03:00N 35°37' E 139°46'1 1.9
2018-Apr-18 02:30N 35°36' E 139°46'1 2.3
2018-Apr-18 02:00N 35°37' E 139°46'1 2.5
2018-Apr-18 01:30N 35°38' E 139°45'0 0.0
2018-Apr-17 16:33N 35°38' E 139°45'0 0.0
2018-Apr-17 16:29N 35°38' E 139°45'0 0.0
2018-Apr-17 16:00N 35°38' E 139°45'0 0.0
2018-Apr-17 15:30N 35°38' E 139°45'0 0.0
2018-Apr-17 14:59N 35°38' E 139°45'0 0.0
2018-Apr-17 14:27N 35°38' E 139°45'0 0.0
2018-Apr-17 13:58N 35°38' E 139°45'0 0.0
2018-Apr-17 13:27N 35°38' E 139°45'0 0.0
2018-Apr-17 12:59N 35°38' E 139°45'0 0.0
2018-Apr-17 12:30N 35°38' E 139°45'0 0.0
2018-Apr-17 11:18N 35°38' E 139°45'0 0.0
2018-Apr-17 10:59N 35°38' E 139°45'0 0.0
2018-Apr-17 10:29N 35°38' E 139°45'0 0.1
2018-Apr-17 09:58N 35°38' E 139°46'0 0.1
2018-Apr-17 09:25N 35°38' E 139°45'0 0.0
2018-Apr-17 08:54N 35°38' E 139°45'0 0.0
2018-Apr-17 08:30N 35°38' E 139°45'0 0.0
2018-Apr-17 08:00N 35°38' E 139°45'0 0.0
2018-Apr-17 07:30N 35°38' E 139°45'0 0.0
2018-Apr-17 07:00N 35°38' E 139°45'2 3.9
2018-Apr-17 06:29N 35°36' E 139°46'1 1.2
2018-Apr-17 06:00N 35°36' E 139°47'2 4.7
2018-Apr-17 05:30N 35°38' E 139°45'0 0.0
2018-Apr-17 04:03N 35°38' E 139°45'0 0.0
2018-Apr-17 03:54N 35°38' E 139°45'0 0.0
2018-Apr-17 03:10N 35°38' E 139°45'0 0.0
2018-Apr-17 02:56N 35°38' E 139°45'0 0.0
2018-Apr-16 23:57N 35°38' E 139°45'0 0.0
2018-Apr-16 23:22N 35°38' E 139°45'0 0.0
2018-Apr-16 22:59N 35°38' E 139°45'0 0.0
2018-Apr-16 22:29N 35°38' E 139°45'0 0.0
2018-Apr-16 22:00N 35°38' E 139°45'0 0.0
2018-Apr-16 21:28N 35°38' E 139°45'0 0.0
2018-Apr-16 20:59N 35°38' E 139°45'0 0.0
2018-Apr-16 20:27N 35°38' E 139°45'0 0.0
2018-Apr-16 19:59N 35°38' E 139°45'0 0.0
2018-Apr-16 19:26N 35°38' E 139°45'0 0.0
2018-Apr-16 18:58N 35°38' E 139°45'0 0.0
2018-Apr-16 18:29N 35°38' E 139°45'0 0.0
2018-Apr-16 10:57N 35°38' E 139°45'0 0.0
2018-Apr-16 10:29N 35°38' E 139°45'0 0.0
2018-Apr-16 09:43N 35°38' E 139°45'0 0.0
2018-Apr-16 09:30N 35°38' E 139°45'0 0.0
2018-Apr-16 09:00N 35°38' E 139°45'0 0.0
2018-Apr-16 08:29N 35°38' E 139°45'0 0.0
2018-Apr-16 07:59N 35°38' E 139°45'0 0.0
2018-Apr-16 07:30N 35°38' E 139°45'0 0.0
2018-Apr-16 06:59N 35°38' E 139°45'0 0.0
2018-Apr-16 06:29N 35°38' E 139°45'0 0.0
2018-Apr-16 05:56N 35°38' E 139°45'0 0.0
2018-Apr-16 05:26N 35°38' E 139°45'0 0.1
2018-Apr-16 05:00N 35°38' E 139°46'0 0.0
2018-Apr-15 23:36N 35°38' E 139°45'1 8.9
2018-Apr-15 23:30N 35°37' E 139°46'1 2.6
2018-Apr-15 23:01N 35°36' E 139°46'2 3.9
2018-Apr-15 22:30N 35°35' E 139°48'0 0.5
2018-Apr-15 22:00N 35°34' E 139°48'1 2.8
2018-Apr-15 21:30N 35°35' E 139°47'0 0.0
2018-Apr-15 21:00N 35°35' E 139°47'0 0.0
2018-Apr-15 20:24N 35°35' E 139°47'1 2.4
2018-Apr-15 20:00N 35°36' E 139°47'1 2.6
2018-Apr-15 19:30N 35°37' E 139°46'1 1.8
2018-Apr-15 18:56N 35°38' E 139°45'0 0.0
2018-Apr-15 18:28N 35°38' E 139°45'0 0.0
2018-Apr-15 17:58N 35°38' E 139°45'0 0.0
2018-Apr-15 17:27N 35°38' E 139°45'0 0.0
2018-Apr-15 16:54N 35°38' E 139°45'0 0.0
2018-Apr-15 14:57N 35°38' E 139°45'0 0.0
2018-Apr-15 12:35N 35°38' E 139°45'0 0.0
2018-Apr-15 11:09N 35°38' E 139°45'0 0.0
2018-Apr-15 10:52N 35°38' E 139°45'0 0.0
2018-Apr-15 10:29N 35°38' E 139°45'0 0.0
2018-Apr-15 10:00N 35°38' E 139°45'0 0.0
2018-Apr-15 09:28N 35°38' E 139°45'0 0.0
2018-Apr-15 09:00N 35°38' E 139°45'0 0.0
2018-Apr-15 08:26N 35°38' E 139°45'0 0.0
2018-Apr-15 07:58N 35°38' E 139°45'0 0.0
2018-Apr-15 07:28N 35°38' E 139°45'0 0.0
2018-Apr-15 06:59N 35°38' E 139°45'0 0.0
2018-Apr-15 06:25N 35°38' E 139°45'0 0.0
2018-Apr-15 06:00N 35°38' E 139°45'0 0.0
2018-Apr-15 05:29N 35°38' E 139°45'2 4.3
2018-Apr-15 05:00N 35°36' E 139°47'1 1.1
2018-Apr-15 04:30N 35°37' E 139°46'2 2.4
2018-Apr-15 03:51N 35°38' E 139°45'0 0.0
2018-Apr-15 00:28N 35°38' E 139°45'0 0.0
2018-Apr-15 00:00N 35°38' E 139°45'0 0.0
2018-Apr-14 23:26N 35°38' E 139°45'0 0.0
2018-Apr-14 22:58N 35°38' E 139°45'0 0.0
2018-Apr-14 22:28N 35°38' E 139°45'0 0.0
2018-Apr-14 22:00N 35°38' E 139°45'0 0.0
2018-Apr-14 21:30N 35°38' E 139°45'0 0.0
2018-Apr-14 21:00N 35°38' E 139°45'0 0.0
2018-Apr-14 20:30N 35°38' E 139°45'0 0.0
2018-Apr-14 20:00N 35°38' E 139°45'0 0.0
2018-Apr-14 19:30N 35°38' E 139°45'0 0.0
2018-Apr-14 19:00N 35°38' E 139°45'0 0.0
2018-Apr-14 18:30N 35°38' E 139°45'  
Track history (hours):
 
Tides and Currents Weather Stations Pressure Air Temp Water Temp Dewpoint Dewpoint Depression Visibility Wind Speed Wind Dir Waves Ship Positions

Asukamaru

Last reported at 2018-Apr-24 18:30 UTC. Time now 2018-Apr-24 18:36 UTC.
Position N 35°38' E 139°45'.

Length 31 m; draft 3 m.

Type: Tug. MMSI: 431001145.

Date/timePositionNaut miles runAvg speedWind from/ knotsBaromVisibWave heightAir tempDewpointWater temp
2018-Apr-24 18:30N 35°38' E 139°45'0 0.0
2018-Apr-24 17:58N 35°38' E 139°45'0 0.0
2018-Apr-24 17:27N 35°38' E 139°45'0 0.0
2018-Apr-24 16:59N 35°38' E 139°45'0 0.0
2018-Apr-24 16:30N 35°38' E 139°45'0 0.0
2018-Apr-24 15:59N 35°38' E 139°45'0 0.0
2018-Apr-24 15:27N 35°38' E 139°45'0 0.0
2018-Apr-24 14:59N 35°38' E 139°45'0 0.0
2018-Apr-24 14:27N 35°38' E 139°45'0 0.0
2018-Apr-24 13:53N 35°38' E 139°45'0 0.0
2018-Apr-24 13:30N 35°38' E 139°45'0 0.0
2018-Apr-24 07:10N 35°38' E 139°45'0 0.0
2018-Apr-24 06:58N 35°38' E 139°45'1 1.5
2018-Apr-24 06:30N 35°38' E 139°46'1 2.9
2018-Apr-24 06:00N 35°36' E 139°46'1 2.1
2018-Apr-24 05:30N 35°37' E 139°46'1 1.3
2018-Apr-24 04:39N 35°38' E 139°45'0 0.0
2018-Apr-24 03:52N 35°38' E 139°45'0 0.0
2018-Apr-24 03:29N 35°38' E 139°45'3 4.6
2018-Apr-24 02:53N 35°36' E 139°47'3 6.9
2018-Apr-24 02:30N 35°38' E 139°46'0 0.4
2018-Apr-24 01:57N 35°38' E 139°46'0 0.0
2018-Apr-24 01:24N 35°38' E 139°46'0 0.0
2018-Apr-24 00:53N 35°38' E 139°46'0 0.0
2018-Apr-24 00:21N 35°38' E 139°46'0 0.1
2018-Apr-23 23:58N 35°38' E 139°45'0 0.0
2018-Apr-23 23:23N 35°38' E 139°45'1 2.1
2018-Apr-23 23:00N 35°37' E 139°46'1 1.7
2018-Apr-23 22:30N 35°37' E 139°46'3 5.3
2018-Apr-23 21:58N 35°34' E 139°48'3 6.7
2018-Apr-23 21:30N 35°37' E 139°46'1 2.4
2018-Apr-23 20:57N 35°38' E 139°45'0 0.0
2018-Apr-23 20:25N 35°38' E 139°45'0 0.0
2018-Apr-23 19:55N 35°38' E 139°45'0 0.0
2018-Apr-23 19:29N 35°38' E 139°45'0 0.0
2018-Apr-23 19:00N 35°38' E 139°45'0 0.0
2018-Apr-23 18:20N 35°38' E 139°45'0 0.0
2018-Apr-23 18:00N 35°38' E 139°45'0 0.0
2018-Apr-23 17:30N 35°38' E 139°45'0 0.0
2018-Apr-23 17:00N 35°38' E 139°45'0 0.0
2018-Apr-23 16:30N 35°38' E 139°45'0 0.0
2018-Apr-23 16:00N 35°38' E 139°45'0 0.0
2018-Apr-23 15:30N 35°38' E 139°45'0 0.0
2018-Apr-23 15:00N 35°38' E 139°45'0 0.0
2018-Apr-23 14:30N 35°38' E 139°45'0 0.1
2018-Apr-23 14:00N 35°38' E 139°46'0 0.1
2018-Apr-23 13:30N 35°38' E 139°45'0 0.0
2018-Apr-23 12:58N 35°38' E 139°45'0 0.0
2018-Apr-23 12:29N 35°38' E 139°45'0 0.0
2018-Apr-23 11:58N 35°38' E 139°45'0 0.0
2018-Apr-23 11:27N 35°38' E 139°45'0 0.0
2018-Apr-23 11:00N 35°38' E 139°45'0 0.0
2018-Apr-23 04:00N 35°38' E 139°45'0 0.0
2018-Apr-23 02:45N 35°38' E 139°45'0 0.0
2018-Apr-23 02:24N 35°38' E 139°45'0 0.0
2018-Apr-23 01:59N 35°38' E 139°45'0 0.0
2018-Apr-23 01:27N 35°38' E 139°45'0 0.0
2018-Apr-23 00:53N 35°38' E 139°45'0 0.1
2018-Apr-23 00:27N 35°38' E 139°46'0 0.1
2018-Apr-22 23:57N 35°38' E 139°45'0 0.0
2018-Apr-22 23:26N 35°38' E 139°45'0 0.0
2018-Apr-22 23:00N 35°38' E 139°45'0 0.0
2018-Apr-22 22:30N 35°38' E 139°45'0 0.0
2018-Apr-22 22:00N 35°38' E 139°45'0 0.0
2018-Apr-22 21:29N 35°38' E 139°45'0 0.0
2018-Apr-22 20:55N 35°38' E 139°45'0 0.0
2018-Apr-22 20:14N 35°38' E 139°45'0 0.0
2018-Apr-22 20:00N 35°38' E 139°45'0 0.0
2018-Apr-22 17:15N 35°38' E 139°45'0 0.0
2018-Apr-22 16:46N 35°38' E 139°45'0 0.0
2018-Apr-22 16:29N 35°38' E 139°45'0 0.0
2018-Apr-22 13:03N 35°38' E 139°45'0 0.0
2018-Apr-22 12:32N 35°38' E 139°45'0 0.0
2018-Apr-22 11:33N 35°38' E 139°45'0 0.1
2018-Apr-22 11:29N 35°38' E 139°45'0 0.0
2018-Apr-22 10:24N 35°38' E 139°45'0 0.0
2018-Apr-22 01:31N 35°38' E 139°45'0 1.2
2018-Apr-22 01:30N 35°38' E 139°45'0 0.0
2018-Apr-22 01:00N 35°38' E 139°45'0 0.0
2018-Apr-22 00:25N 35°38' E 139°45'0 0.0
2018-Apr-21 22:27N 35°38' E 139°45'0 0.0
2018-Apr-21 20:49N 35°38' E 139°45'3 8.0
2018-Apr-21 20:30N 35°36' E 139°47'1 1.6
2018-Apr-21 20:00N 35°36' E 139°46'2 1.1
2018-Apr-21 18:26N 35°38' E 139°45'0 0.0
2018-Apr-21 17:55N 35°38' E 139°45'0 1.0
2018-Apr-21 17:30N 35°38' E 139°46'2 3.4
2018-Apr-21 16:59N 35°36' E 139°46'2 4.4
2018-Apr-21 16:30N 35°38' E 139°45'0 0.0
2018-Apr-21 13:37N 35°38' E 139°45'0 0.0
2018-Apr-21 13:30N 35°38' E 139°45'2 4.1
2018-Apr-21 13:00N 35°37' E 139°47'0 0.3
2018-Apr-21 12:30N 35°36' E 139°47'2 4.5
2018-Apr-21 12:00N 35°35' E 139°48'0 0.6
2018-Apr-21 11:30N 35°34' E 139°48'2 4.6
2018-Apr-21 11:01N 35°36' E 139°47'1 2.1
2018-Apr-21 10:30N 35°35' E 139°47'2 3.6
2018-Apr-21 09:59N 35°34' E 139°49'1 1.6
2018-Apr-21 09:30N 35°35' E 139°48'1 2.7
2018-Apr-21 08:59N 35°36' E 139°48'1 1.2
2018-Apr-21 08:30N 35°36' E 139°47'1 2.9
2018-Apr-21 08:01N 35°34' E 139°48'2 4.4
2018-Apr-21 07:30N 35°36' E 139°46'2 0.6
2018-Apr-21 03:26N 35°38' E 139°45'3 7.8
2018-Apr-21 03:00N 35°35' E 139°48'3 6.5
2018-Apr-21 02:30N 35°38' E 139°45'0 0.1
2018-Apr-21 01:34N 35°38' E 139°45'0 0.0
2018-Apr-21 01:24N 35°38' E 139°45'0 0.0
2018-Apr-21 00:55N 35°38' E 139°45'0 0.0
2018-Apr-21 00:28N 35°38' E 139°45'0 0.0
2018-Apr-21 00:00N 35°38' E 139°45'0 0.0
2018-Apr-20 23:30N 35°38' E 139°45'0 0.0
2018-Apr-20 22:58N 35°38' E 139°45'0 0.0
2018-Apr-20 22:29N 35°38' E 139°45'0 0.0
2018-Apr-20 21:58N 35°38' E 139°45'0 0.0
2018-Apr-20 21:29N 35°38' E 139°45'0 0.0
2018-Apr-20 21:00N 35°38' E 139°45'0 0.0
2018-Apr-20 20:30N 35°38' E 139°45'0 0.0
2018-Apr-20 20:00N 35°38' E 139°45'0 0.0
2018-Apr-20 19:18N 35°38' E 139°45'0 0.0
2018-Apr-20 18:59N 35°38' E 139°45'0 0.0
2018-Apr-20 17:57N 35°38' E 139°45'0 0.0
2018-Apr-20 14:02N 35°38' E 139°45'0 6.4
2018-Apr-20 14:00N 35°38' E 139°46'2 3.7
2018-Apr-20 13:30N 35°36' E 139°47'1 2.0
2018-Apr-20 12:59N 35°37' E 139°46'1 1.2
2018-Apr-20 12:07N 35°38' E 139°45'0 0.6
2018-Apr-20 11:56N 35°38' E 139°46'2 4.4
2018-Apr-20 11:30N 35°36' E 139°47'1 1.3
2018-Apr-20 11:00N 35°37' E 139°46'1 1.1
2018-Apr-20 09:41N 35°38' E 139°45'0 0.0
2018-Apr-20 09:12N 35°38' E 139°45'0 0.0
2018-Apr-20 08:51N 35°38' E 139°45'1 3.0
2018-Apr-20 08:31N 35°37' E 139°46'2 4.8
2018-Apr-20 08:00N 35°35' E 139°48'1 0.5
2018-Apr-20 06:11N 35°36' E 139°46'1 3.7
2018-Apr-20 06:00N 35°36' E 139°47'2 3.0
2018-Apr-20 05:30N 35°37' E 139°46'1 0.4
2018-Apr-20 03:00N 35°38' E 139°45'0 0.0
2018-Apr-20 02:27N 35°38' E 139°45'0 0.0
2018-Apr-20 01:58N 35°38' E 139°45'0 0.0
2018-Apr-20 01:30N 35°38' E 139°45'0 0.0
2018-Apr-20 01:00N 35°38' E 139°45'0 0.0
2018-Apr-20 00:30N 35°38' E 139°45'0 0.0
2018-Apr-19 23:57N 35°38' E 139°45'0 0.0
2018-Apr-19 23:04N 35°38' E 139°45'0 0.1
2018-Apr-19 23:00N 35°38' E 139°45'0 0.0
2018-Apr-19 22:25N 35°38' E 139°45'0 0.0
2018-Apr-19 21:59N 35°38' E 139°45'0 0.0
2018-Apr-19 21:26N 35°38' E 139°45'0 0.0
2018-Apr-19 20:56N 35°38' E 139°45'0 0.0
2018-Apr-19 20:09N 35°38' E 139°45'0 0.0
2018-Apr-19 19:56N 35°38' E 139°45'0 0.0
2018-Apr-19 19:28N 35°38' E 139°45'0 0.0
2018-Apr-19 18:57N 35°38' E 139°45'0 0.0
2018-Apr-19 18:30N 35°38' E 139°45'0 0.0
2018-Apr-19 17:58N 35°38' E 139°45'0 0.0
2018-Apr-19 17:29N 35°38' E 139°45'0 0.0
2018-Apr-19 16:18N 35°38' E 139°45'0 0.0
2018-Apr-19 15:57N 35°38' E 139°45'0 0.0
2018-Apr-19 13:49N 35°38' E 139°45'0 0.0
2018-Apr-19 13:19N 35°38' E 139°45'0 0.0
2018-Apr-19 12:38N 35°38' E 139°45'0 0.0
2018-Apr-19 12:22N 35°38' E 139°45'0 0.0
2018-Apr-19 11:57N 35°38' E 139°45'0 0.0
2018-Apr-19 11:29N 35°38' E 139°45'0 0.0
2018-Apr-19 10:58N 35°38' E 139°45'0 0.0
2018-Apr-19 10:28N 35°38' E 139°45'0 0.0
2018-Apr-19 09:56N 35°38' E 139°45'0 0.0
2018-Apr-19 09:19N 35°38' E 139°45'0 0.0
2018-Apr-19 08:59N 35°38' E 139°45'0 0.0
2018-Apr-19 08:30N 35°38' E 139°45'0 0.0
2018-Apr-19 07:24N 35°38' E 139°45'0 0.0
2018-Apr-19 06:55N 35°38' E 139°45'0 0.0
2018-Apr-19 01:16N 35°38' E 139°45'0 0.0
2018-Apr-19 01:00N 35°38' E 139°45'0 0.0
2018-Apr-19 00:24N 35°38' E 139°45'0 0.0
2018-Apr-18 23:52N 35°38' E 139°45'0 0.0
2018-Apr-18 23:30N 35°38' E 139°45'0 0.0
2018-Apr-18 22:56N 35°38' E 139°45'0 0.0
2018-Apr-18 22:27N 35°38' E 139°45'0 0.0
2018-Apr-18 21:57N 35°38' E 139°45'0 0.0
2018-Apr-18 21:30N 35°38' E 139°45'0 0.0
2018-Apr-18 21:00N 35°38' E 139°45'0 0.0
2018-Apr-18 19:44N 35°38' E 139°45'0 0.0
2018-Apr-18 19:29N 35°38' E 139°45'0 0.0
2018-Apr-18 15:56N 35°38' E 139°45'0 0.0
2018-Apr-18 15:28N 35°38' E 139°45'0 0.0
2018-Apr-18 14:53N 35°38' E 139°45'0 0.0
2018-Apr-18 14:13N 35°38' E 139°45'0 0.0
2018-Apr-18 14:00N 35°38' E 139°45'0 0.0
2018-Apr-18 12:38N 35°38' E 139°45'0 0.0
2018-Apr-18 11:37N 35°38' E 139°45'0 0.0
2018-Apr-18 11:13N 35°38' E 139°45'0 0.1
2018-Apr-18 10:51N 35°38' E 139°46'0 0.1
2018-Apr-18 10:30N 35°38' E 139°45'0 0.0
2018-Apr-18 09:58N 35°38' E 139°45'0 0.0
2018-Apr-18 09:27N 35°38' E 139°45'0 0.0
2018-Apr-18 09:00N 35°38' E 139°45'0 0.0
2018-Apr-18 08:30N 35°38' E 139°45'0 0.0
2018-Apr-18 07:52N 35°38' E 139°45'0 0.0
2018-Apr-18 07:30N 35°38' E 139°45'0 0.0
2018-Apr-18 07:00N 35°38' E 139°45'0 0.0
2018-Apr-18 06:24N 35°38' E 139°45'0 0.1
2018-Apr-18 04:32N 35°38' E 139°46'0 9.7
2018-Apr-18 04:30N 35°38' E 139°46'0 0.8
2018-Apr-18 04:00N 35°37' E 139°46'0 0.2
2018-Apr-18 03:29N 35°37' E 139°46'1 1.4
2018-Apr-18 03:00N 35°37' E 139°46'1 1.9
2018-Apr-18 02:30N 35°36' E 139°46'1 2.3
2018-Apr-18 02:00N 35°37' E 139°46'1 2.5
2018-Apr-18 01:30N 35°38' E 139°45'0 0.0
2018-Apr-17 16:33N 35°38' E 139°45'0 0.0
2018-Apr-17 16:29N 35°38' E 139°45'0 0.0
2018-Apr-17 16:00N 35°38' E 139°45'0 0.0
2018-Apr-17 15:30N 35°38' E 139°45'0 0.0
2018-Apr-17 14:59N 35°38' E 139°45'0 0.0
2018-Apr-17 14:27N 35°38' E 139°45'0 0.0
2018-Apr-17 13:58N 35°38' E 139°45'0 0.0
2018-Apr-17 13:27N 35°38' E 139°45'0 0.0
2018-Apr-17 12:59N 35°38' E 139°45'0 0.0
2018-Apr-17 12:30N 35°38' E 139°45'0 0.0
2018-Apr-17 11:18N 35°38' E 139°45'0 0.0
2018-Apr-17 10:59N 35°38' E 139°45'0 0.0
2018-Apr-17 10:29N 35°38' E 139°45'0 0.1
2018-Apr-17 09:58N 35°38' E 139°46'0 0.1
2018-Apr-17 09:25N 35°38' E 139°45'0 0.0
2018-Apr-17 08:54N 35°38' E 139°45'0 0.0
2018-Apr-17 08:30N 35°38' E 139°45'0 0.0
2018-Apr-17 08:00N 35°38' E 139°45'0 0.0
2018-Apr-17 07:30N 35°38' E 139°45'0 0.0
2018-Apr-17 07:00N 35°38' E 139°45'2 3.9
2018-Apr-17 06:29N 35°36' E 139°46'1 1.2
2018-Apr-17 06:00N 35°36' E 139°47'2 4.7
2018-Apr-17 05:30N 35°38' E 139°45'0 0.0
2018-Apr-17 04:03N 35°38' E 139°45'0 0.0
2018-Apr-17 03:54N 35°38' E 139°45'0 0.0
2018-Apr-17 03:10N 35°38' E 139°45'0 0.0
2018-Apr-17 02:56N 35°38' E 139°45'0 0.0
2018-Apr-16 23:57N 35°38' E 139°45'0 0.0
2018-Apr-16 23:22N 35°38' E 139°45'0 0.0
2018-Apr-16 22:59N 35°38' E 139°45'0 0.0
2018-Apr-16 22:29N 35°38' E 139°45'0 0.0
2018-Apr-16 22:00N 35°38' E 139°45'0 0.0
2018-Apr-16 21:28N 35°38' E 139°45'0 0.0
2018-Apr-16 20:59N 35°38' E 139°45'0 0.0
2018-Apr-16 20:27N 35°38' E 139°45'0 0.0
2018-Apr-16 19:59N 35°38' E 139°45'0 0.0
2018-Apr-16 19:26N 35°38' E 139°45'0 0.0
2018-Apr-16 18:58N 35°38' E 139°45'0 0.0
2018-Apr-16 18:29N 35°38' E 139°45'0 0.0
2018-Apr-16 10:57N 35°38' E 139°45'0 0.0
2018-Apr-16 10:29N 35°38' E 139°45'0 0.0
2018-Apr-16 09:43N 35°38' E 139°45'0 0.0
2018-Apr-16 09:30N 35°38' E 139°45'0 0.0
2018-Apr-16 09:00N 35°38' E 139°45'0 0.0
2018-Apr-16 08:29N 35°38' E 139°45'0 0.0
2018-Apr-16 07:59N 35°38' E 139°45'0 0.0
2018-Apr-16 07:30N 35°38' E 139°45'0 0.0
2018-Apr-16 06:59N 35°38' E 139°45'0 0.0
2018-Apr-16 06:29N 35°38' E 139°45'0 0.0
2018-Apr-16 05:56N 35°38' E 139°45'0 0.0
2018-Apr-16 05:26N 35°38' E 139°45'0 0.1
2018-Apr-16 05:00N 35°38' E 139°46'0 0.0
2018-Apr-15 23:36N 35°38' E 139°45'1 8.9
2018-Apr-15 23:30N 35°37' E 139°46'1 2.6
2018-Apr-15 23:01N 35°36' E 139°46'2 3.9
2018-Apr-15 22:30N 35°35' E 139°48'0 0.5
2018-Apr-15 22:00N 35°34' E 139°48'1 2.8
2018-Apr-15 21:30N 35°35' E 139°47'0 0.0
2018-Apr-15 21:00N 35°35' E 139°47'0 0.0
2018-Apr-15 20:24N 35°35' E 139°47'1 2.4
2018-Apr-15 20:00N 35°36' E 139°47'1 2.6
2018-Apr-15 19:30N 35°37' E 139°46'1 1.8
2018-Apr-15 18:56N 35°38' E 139°45'0 0.0
2018-Apr-15 18:28N 35°38' E 139°45'0 0.0
2018-Apr-15 17:58N 35°38' E 139°45'0 0.0
2018-Apr-15 17:27N 35°38' E 139°45'0 0.0
2018-Apr-15 16:54N 35°38' E 139°45'0 0.0
2018-Apr-15 14:57N 35°38' E 139°45'0 0.0
2018-Apr-15 12:35N 35°38' E 139°45'0 0.0
2018-Apr-15 11:09N 35°38' E 139°45'0 0.0
2018-Apr-15 10:52N 35°38' E 139°45'0 0.0
2018-Apr-15 10:29N 35°38' E 139°45'0 0.0
2018-Apr-15 10:00N 35°38' E 139°45'0 0.0
2018-Apr-15 09:28N 35°38' E 139°45'0 0.0
2018-Apr-15 09:00N 35°38' E 139°45'0 0.0
2018-Apr-15 08:26N 35°38' E 139°45'0 0.0
2018-Apr-15 07:58N 35°38' E 139°45'0 0.0
2018-Apr-15 07:28N 35°38' E 139°45'0 0.0
2018-Apr-15 06:59N 35°38' E 139°45'0 0.0
2018-Apr-15 06:25N 35°38' E 139°45'0 0.0
2018-Apr-15 06:00N 35°38' E 139°45'0 0.0
2018-Apr-15 05:29N 35°38' E 139°45'2 4.3
2018-Apr-15 05:00N 35°36' E 139°47'1 1.1
2018-Apr-15 04:30N 35°37' E 139°46'2 2.4
2018-Apr-15 03:51N 35°38' E 139°45'0 0.0
2018-Apr-15 00:28N 35°38' E 139°45'0 0.0
2018-Apr-15 00:00N 35°38' E 139°45'0 0.0
2018-Apr-14 23:26N 35°38' E 139°45'0 0.0
2018-Apr-14 22:58N 35°38' E 139°45'0 0.0
2018-Apr-14 22:28N 35°38' E 139°45'0 0.0
2018-Apr-14 22:00N 35°38' E 139°45'0 0.0
2018-Apr-14 21:30N 35°38' E 139°45'0 0.0
2018-Apr-14 21:00N 35°38' E 139°45'0 0.0
2018-Apr-14 20:30N 35°38' E 139°45'0 0.0
2018-Apr-14 20:00N 35°38' E 139°45'0 0.0
2018-Apr-14 19:30N 35°38' E 139°45'0 0.0
2018-Apr-14 19:00N 35°38' E 139°45'0 0.0
2018-Apr-14 18:30N 35°38' E 139°45'  

Dump ship's entire track history